sensor_id;sensor_type;location;lat;lon;timestamp;P1;durP1;ratioP1;P2;durP2;ratioP2
34832;SDS011;55941;50.800;4.342;2023-07-16T00:01:11;10.50;;;3.00;;
34832;SDS011;55941;50.800;4.342;2023-07-16T00:03:37;16.20;;;3.10;;
34832;SDS011;55941;50.800;4.342;2023-07-16T00:06:03;15.07;;;3.33;;
34832;SDS011;55941;50.800;4.342;2023-07-16T00:08:28;10.38;;;2.58;;
34832;SDS011;55941;50.800;4.342;2023-07-16T00:10:54;18.02;;;3.22;;
34832;SDS011;55941;50.800;4.342;2023-07-16T00:13:19;11.35;;;3.00;;
34832;SDS011;55941;50.800;4.342;2023-07-16T00:15:45;14.90;;;3.10;;
34832;SDS011;55941;50.800;4.342;2023-07-16T00:18:11;17.55;;;3.58;;
34832;SDS011;55941;50.800;4.342;2023-07-16T00:20:36;13.98;;;2.65;;
34832;SDS011;55941;50.800;4.342;2023-07-16T00:23:02;15.35;;;3.83;;
34832;SDS011;55941;50.800;4.342;2023-07-16T00:25:28;22.35;;;3.25;;
34832;SDS011;55941;50.800;4.342;2023-07-16T00:27:53;12.27;;;3.20;;
34832;SDS011;55941;50.800;4.342;2023-07-16T00:30:19;25.05;;;4.03;;
34832;SDS011;55941;50.800;4.342;2023-07-16T00:32:45;19.42;;;3.22;;
34832;SDS011;55941;50.800;4.342;2023-07-16T00:35:11;14.88;;;3.90;;
34832;SDS011;55941;50.800;4.342;2023-07-16T00:37:37;17.25;;;3.70;;
34832;SDS011;55941;50.800;4.342;2023-07-16T00:40:03;15.80;;;3.33;;
34832;SDS011;55941;50.800;4.342;2023-07-16T00:42:29;16.05;;;2.97;;
34832;SDS011;55941;50.800;4.342;2023-07-16T00:44:55;16.35;;;3.40;;
34832;SDS011;55941;50.800;4.342;2023-07-16T00:47:21;13.95;;;3.50;;
34832;SDS011;55941;50.800;4.342;2023-07-16T00:49:47;17.98;;;3.25;;
34832;SDS011;55941;50.800;4.342;2023-07-16T00:52:14;12.32;;;2.97;;
34832;SDS011;55941;50.800;4.342;2023-07-16T00:54:43;17.70;;;2.65;;
34832;SDS011;55941;50.800;4.342;2023-07-16T00:57:09;19.75;;;3.75;;
34832;SDS011;55941;50.800;4.342;2023-07-16T00:59:35;14.07;;;2.88;;
34832;SDS011;55941;50.800;4.342;2023-07-16T01:02:01;16.40;;;2.92;;
34832;SDS011;55941;50.800;4.342;2023-07-16T01:04:27;13.85;;;2.78;;
34832;SDS011;55941;50.800;4.342;2023-07-16T01:06:53;10.70;;;2.50;;
34832;SDS011;55941;50.800;4.342;2023-07-16T01:09:23;12.00;;;2.75;;
34832;SDS011;55941;50.800;4.342;2023-07-16T01:11:50;17.88;;;2.90;;
34832;SDS011;55941;50.800;4.342;2023-07-16T01:14:18;11.00;;;3.03;;
34832;SDS011;55941;50.800;4.342;2023-07-16T01:16:44;16.75;;;2.65;;
34832;SDS011;55941;50.800;4.342;2023-07-16T01:19:10;13.95;;;3.38;;
34832;SDS011;55941;50.800;4.342;2023-07-16T01:27:16;24.42;;;3.22;;
34832;SDS011;55941;50.800;4.342;2023-07-16T01:29:54;18.50;;;3.75;;
34832;SDS011;55941;50.800;4.342;2023-07-16T01:32:28;14.18;;;3.35;;
34832;SDS011;55941;50.800;4.342;2023-07-16T01:34:55;17.75;;;2.75;;
34832;SDS011;55941;50.800;4.342;2023-07-16T01:37:22;17.80;;;3.15;;
34832;SDS011;55941;50.800;4.342;2023-07-16T01:39:49;16.33;;;3.08;;
34832;SDS011;55941;50.800;4.342;2023-07-16T01:42:15;15.48;;;3.20;;
34832;SDS011;55941;50.800;4.342;2023-07-16T01:44:41;19.58;;;3.50;;
34832;SDS011;55941;50.800;4.342;2023-07-16T01:47:11;14.45;;;3.33;;
34832;SDS011;55941;50.800;4.342;2023-07-16T01:49:44;12.32;;;3.40;;
34832;SDS011;55941;50.800;4.342;2023-07-16T01:52:10;18.20;;;2.83;;
34832;SDS011;55941;50.800;4.342;2023-07-16T01:54:36;12.40;;;3.15;;
34832;SDS011;55941;50.800;4.342;2023-07-16T01:57:02;15.32;;;3.13;;
34832;SDS011;55941;50.800;4.342;2023-07-16T01:59:28;19.55;;;3.38;;
34832;SDS011;55941;50.800;4.342;2023-07-16T02:01:55;14.40;;;3.15;;
34832;SDS011;55941;50.800;4.342;2023-07-16T02:04:20;12.38;;;3.05;;
34832;SDS011;55941;50.800;4.342;2023-07-16T02:06:46;12.77;;;2.95;;
34832;SDS011;55941;50.800;4.342;2023-07-16T02:09:13;13.85;;;3.58;;
34832;SDS011;55941;50.800;4.342;2023-07-16T02:11:39;10.18;;;3.40;;
34832;SDS011;55941;50.800;4.342;2023-07-16T02:14:04;15.20;;;3.75;;
34832;SDS011;55941;50.800;4.342;2023-07-16T02:16:31;24.40;;;4.78;;
34832;SDS011;55941;50.800;4.342;2023-07-16T02:18:57;12.55;;;3.45;;
34832;SDS011;55941;50.800;4.342;2023-07-16T02:21:23;16.10;;;3.83;;
34832;SDS011;55941;50.800;4.342;2023-07-16T02:23:48;13.32;;;3.75;;
34832;SDS011;55941;50.800;4.342;2023-07-16T02:26:14;17.83;;;3.88;;
34832;SDS011;55941;50.800;4.342;2023-07-16T02:28:40;18.45;;;4.28;;
34832;SDS011;55941;50.800;4.342;2023-07-16T02:31:05;13.85;;;4.32;;
34832;SDS011;55941;50.800;4.342;2023-07-16T02:33:31;14.35;;;4.75;;
34832;SDS011;55941;50.800;4.342;2023-07-16T02:35:57;16.65;;;4.38;;
34832;SDS011;55941;50.800;4.342;2023-07-16T02:38:23;13.55;;;4.03;;
34832;SDS011;55941;50.800;4.342;2023-07-16T02:40:48;11.63;;;4.13;;
34832;SDS011;55941;50.800;4.342;2023-07-16T02:43:14;20.48;;;4.90;;
34832;SDS011;55941;50.800;4.342;2023-07-16T02:45:40;20.30;;;4.88;;
34832;SDS011;55941;50.800;4.342;2023-07-16T02:48:07;8.52;;;4.03;;
34832;SDS011;55941;50.800;4.342;2023-07-16T02:50:36;15.95;;;4.72;;
34832;SDS011;55941;50.800;4.342;2023-07-16T02:53:06;15.35;;;4.45;;
34832;SDS011;55941;50.800;4.342;2023-07-16T02:55:32;17.95;;;5.15;;
34832;SDS011;55941;50.800;4.342;2023-07-16T02:58:00;13.40;;;5.05;;
34832;SDS011;55941;50.800;4.342;2023-07-16T03:00:29;14.35;;;4.32;;
34832;SDS011;55941;50.800;4.342;2023-07-16T03:02:55;19.20;;;4.65;;
34832;SDS011;55941;50.800;4.342;2023-07-16T03:05:21;14.20;;;4.70;;
34832;SDS011;55941;50.800;4.342;2023-07-16T03:07:47;17.38;;;5.45;;
34832;SDS011;55941;50.800;4.342;2023-07-16T03:10:12;19.52;;;4.75;;
34832;SDS011;55941;50.800;4.342;2023-07-16T03:12:38;15.15;;;5.03;;
34832;SDS011;55941;50.800;4.342;2023-07-16T03:15:04;13.15;;;4.20;;
34832;SDS011;55941;50.800;4.342;2023-07-16T03:17:30;16.38;;;5.22;;
34832;SDS011;55941;50.800;4.342;2023-07-16T03:19:56;20.20;;;4.93;;
34832;SDS011;55941;50.800;4.342;2023-07-16T03:22:22;19.35;;;4.97;;
34832;SDS011;55941;50.800;4.342;2023-07-16T03:24:48;12.05;;;4.88;;
34832;SDS011;55941;50.800;4.342;2023-07-16T03:27:14;17.88;;;5.55;;
34832;SDS011;55941;50.800;4.342;2023-07-16T03:29:39;21.75;;;5.40;;
34832;SDS011;55941;50.800;4.342;2023-07-16T03:32:05;20.88;;;5.25;;
34832;SDS011;55941;50.800;4.342;2023-07-16T03:34:31;17.08;;;5.00;;
34832;SDS011;55941;50.800;4.342;2023-07-16T03:36:57;19.70;;;5.13;;
34832;SDS011;55941;50.800;4.342;2023-07-16T03:39:22;20.77;;;5.25;;
34832;SDS011;55941;50.800;4.342;2023-07-16T03:41:48;18.77;;;5.95;;
34832;SDS011;55941;50.800;4.342;2023-07-16T03:44:15;20.73;;;5.63;;
34832;SDS011;55941;50.800;4.342;2023-07-16T03:46:41;18.00;;;5.15;;
34832;SDS011;55941;50.800;4.342;2023-07-16T03:49:07;22.30;;;5.03;;
34832;SDS011;55941;50.800;4.342;2023-07-16T03:51:33;22.42;;;5.97;;
34832;SDS011;55941;50.800;4.342;2023-07-16T03:53:59;13.55;;;4.82;;
34832;SDS011;55941;50.800;4.342;2023-07-16T03:56:25;15.85;;;4.88;;
34832;SDS011;55941;50.800;4.342;2023-07-16T03:58:51;13.75;;;5.45;;
34832;SDS011;55941;50.800;4.342;2023-07-16T04:01:17;21.70;;;5.25;;
34832;SDS011;55941;50.800;4.342;2023-07-16T04:03:42;16.67;;;5.30;;
34832;SDS011;55941;50.800;4.342;2023-07-16T04:06:09;14.88;;;5.05;;
34832;SDS011;55941;50.800;4.342;2023-07-16T04:08:35;15.95;;;5.05;;
34832;SDS011;55941;50.800;4.342;2023-07-16T04:11:01;20.60;;;6.20;;
34832;SDS011;55941;50.800;4.342;2023-07-16T04:13:31;16.05;;;5.60;;
34832;SDS011;55941;50.800;4.342;2023-07-16T04:15:57;18.23;;;5.13;;
34832;SDS011;55941;50.800;4.342;2023-07-16T04:18:25;24.08;;;5.85;;
34832;SDS011;55941;50.800;4.342;2023-07-16T04:20:51;21.42;;;5.63;;
34832;SDS011;55941;50.800;4.342;2023-07-16T04:23:16;22.15;;;5.45;;
34832;SDS011;55941;50.800;4.342;2023-07-16T04:25:42;19.83;;;6.13;;
34832;SDS011;55941;50.800;4.342;2023-07-16T04:28:09;21.63;;;6.07;;
34832;SDS011;55941;50.800;4.342;2023-07-16T04:30:35;20.42;;;5.95;;
34832;SDS011;55941;50.800;4.342;2023-07-16T04:33:02;17.35;;;6.00;;
34832;SDS011;55941;50.800;4.342;2023-07-16T04:35:28;23.90;;;5.72;;
34832;SDS011;55941;50.800;4.342;2023-07-16T04:37:54;20.67;;;6.13;;
34832;SDS011;55941;50.800;4.342;2023-07-16T04:40:21;12.43;;;5.65;;
34832;SDS011;55941;50.800;4.342;2023-07-16T04:42:47;20.80;;;6.30;;
34832;SDS011;55941;50.800;4.342;2023-07-16T04:45:12;14.88;;;6.20;;
34832;SDS011;55941;50.800;4.342;2023-07-16T04:47:38;13.50;;;5.32;;
34832;SDS011;55941;50.800;4.342;2023-07-16T04:50:04;27.50;;;7.03;;
34832;SDS011;55941;50.800;4.342;2023-07-16T04:52:30;18.10;;;6.95;;
34832;SDS011;55941;50.800;4.342;2023-07-16T04:54:56;19.60;;;6.18;;
34832;SDS011;55941;50.800;4.342;2023-07-16T04:57:22;22.55;;;6.45;;
34832;SDS011;55941;50.800;4.342;2023-07-16T04:59:48;19.83;;;7.05;;
34832;SDS011;55941;50.800;4.342;2023-07-16T05:02:14;19.70;;;6.38;;
34832;SDS011;55941;50.800;4.342;2023-07-16T05:04:42;15.55;;;6.03;;
34832;SDS011;55941;50.800;4.342;2023-07-16T05:07:09;15.77;;;6.75;;
34832;SDS011;55941;50.800;4.342;2023-07-16T05:09:35;16.50;;;6.57;;
34832;SDS011;55941;50.800;4.342;2023-07-16T05:12:01;21.85;;;7.95;;
34832;SDS011;55941;50.800;4.342;2023-07-16T05:14:27;21.50;;;7.22;;
34832;SDS011;55941;50.800;4.342;2023-07-16T05:16:54;25.63;;;7.75;;
34832;SDS011;55941;50.800;4.342;2023-07-16T05:19:20;23.17;;;7.25;;
34832;SDS011;55941;50.800;4.342;2023-07-16T05:21:46;21.52;;;6.55;;
34832;SDS011;55941;50.800;4.342;2023-07-16T05:24:12;17.70;;;7.47;;
34832;SDS011;55941;50.800;4.342;2023-07-16T05:26:37;19.10;;;6.95;;
34832;SDS011;55941;50.800;4.342;2023-07-16T05:29:03;20.08;;;7.18;;
34832;SDS011;55941;50.800;4.342;2023-07-16T05:31:29;17.67;;;6.65;;
34832;SDS011;55941;50.800;4.342;2023-07-16T05:33:55;19.20;;;7.90;;
34832;SDS011;55941;50.800;4.342;2023-07-16T05:36:21;21.35;;;7.43;;
34832;SDS011;55941;50.800;4.342;2023-07-16T05:38:46;16.35;;;7.57;;
34832;SDS011;55941;50.800;4.342;2023-07-16T05:41:12;25.02;;;7.78;;
34832;SDS011;55941;50.800;4.342;2023-07-16T05:43:39;16.15;;;7.40;;
34832;SDS011;55941;50.800;4.342;2023-07-16T05:46:05;21.33;;;7.57;;
34832;SDS011;55941;50.800;4.342;2023-07-16T05:48:31;17.92;;;6.47;;
34832;SDS011;55941;50.800;4.342;2023-07-16T05:50:57;21.35;;;8.18;;
34832;SDS011;55941;50.800;4.342;2023-07-16T05:53:23;23.27;;;7.78;;
34832;SDS011;55941;50.800;4.342;2023-07-16T05:55:48;19.85;;;7.20;;
34832;SDS011;55941;50.800;4.342;2023-07-16T05:58:17;23.67;;;7.85;;
34832;SDS011;55941;50.800;4.342;2023-07-16T06:00:43;22.70;;;7.43;;
34832;SDS011;55941;50.800;4.342;2023-07-16T06:03:09;18.80;;;7.75;;
34832;SDS011;55941;50.800;4.342;2023-07-16T06:05:35;31.08;;;7.65;;
34832;SDS011;55941;50.800;4.342;2023-07-16T06:08:02;21.70;;;7.50;;
34832;SDS011;55941;50.800;4.342;2023-07-16T06:10:28;20.10;;;7.60;;
34832;SDS011;55941;50.800;4.342;2023-07-16T06:12:54;25.10;;;7.60;;
34832;SDS011;55941;50.800;4.342;2023-07-16T06:15:20;26.35;;;8.65;;
34832;SDS011;55941;50.800;4.342;2023-07-16T06:17:45;22.80;;;7.97;;
34832;SDS011;55941;50.800;4.342;2023-07-16T06:20:13;18.65;;;7.18;;
34832;SDS011;55941;50.800;4.342;2023-07-16T06:22:39;21.73;;;7.22;;
34832;SDS011;55941;50.800;4.342;2023-07-16T06:25:06;21.33;;;8.05;;
34832;SDS011;55941;50.800;4.342;2023-07-16T06:27:34;17.58;;;7.43;;
34832;SDS011;55941;50.800;4.342;2023-07-16T06:30:00;20.70;;;7.45;;
34832;SDS011;55941;50.800;4.342;2023-07-16T06:32:25;23.92;;;8.25;;
34832;SDS011;55941;50.800;4.342;2023-07-16T06:34:51;22.33;;;7.90;;
34832;SDS011;55941;50.800;4.342;2023-07-16T06:37:17;21.13;;;7.82;;
34832;SDS011;55941;50.800;4.342;2023-07-16T06:39:42;15.60;;;6.20;;
34832;SDS011;55941;50.800;4.342;2023-07-16T06:42:08;22.17;;;7.65;;
34832;SDS011;55941;50.800;4.342;2023-07-16T06:44:34;23.77;;;8.60;;
34832;SDS011;55941;50.800;4.342;2023-07-16T06:47:00;24.40;;;8.18;;
34832;SDS011;55941;50.800;4.342;2023-07-16T06:49:26;28.52;;;8.68;;
34832;SDS011;55941;50.800;4.342;2023-07-16T06:51:52;22.25;;;8.43;;
34832;SDS011;55941;50.800;4.342;2023-07-16T06:54:18;16.88;;;7.63;;
34832;SDS011;55941;50.800;4.342;2023-07-16T06:56:43;25.60;;;7.30;;
34832;SDS011;55941;50.800;4.342;2023-07-16T06:59:09;23.95;;;7.93;;
34832;SDS011;55941;50.800;4.342;2023-07-16T07:01:35;27.30;;;8.25;;
34832;SDS011;55941;50.800;4.342;2023-07-16T07:04:02;27.25;;;7.80;;
34832;SDS011;55941;50.800;4.342;2023-07-16T07:06:27;22.02;;;8.05;;
34832;SDS011;55941;50.800;4.342;2023-07-16T07:08:53;23.45;;;7.78;;
34832;SDS011;55941;50.800;4.342;2023-07-16T07:11:20;18.05;;;7.70;;
34832;SDS011;55941;50.800;4.342;2023-07-16T07:13:45;21.20;;;8.70;;
34832;SDS011;55941;50.800;4.342;2023-07-16T07:16:11;20.13;;;7.40;;
34832;SDS011;55941;50.800;4.342;2023-07-16T07:18:37;24.05;;;8.23;;
34832;SDS011;55941;50.800;4.342;2023-07-16T07:21:03;20.33;;;7.55;;
34832;SDS011;55941;50.800;4.342;2023-07-16T07:23:28;22.45;;;7.85;;
34832;SDS011;55941;50.800;4.342;2023-07-16T07:25:54;20.58;;;7.60;;
34832;SDS011;55941;50.800;4.342;2023-07-16T07:28:20;21.00;;;7.40;;
34832;SDS011;55941;50.800;4.342;2023-07-16T07:30:46;19.58;;;7.85;;
34832;SDS011;55941;50.800;4.342;2023-07-16T07:33:11;20.00;;;7.60;;
34832;SDS011;55941;50.800;4.342;2023-07-16T07:35:37;22.42;;;8.25;;
34832;SDS011;55941;50.800;4.342;2023-07-16T07:38:03;25.08;;;7.93;;
34832;SDS011;55941;50.800;4.342;2023-07-16T07:40:29;27.73;;;7.65;;
34832;SDS011;55941;50.800;4.342;2023-07-16T07:42:55;19.52;;;6.95;;
34832;SDS011;55941;50.800;4.342;2023-07-16T07:45:21;20.42;;;7.07;;
34832;SDS011;55941;50.800;4.342;2023-07-16T07:47:46;23.45;;;8.30;;
34832;SDS011;55941;50.800;4.342;2023-07-16T07:50:13;22.33;;;7.20;;
34832;SDS011;55941;50.800;4.342;2023-07-16T07:52:39;19.90;;;7.90;;
34832;SDS011;55941;50.800;4.342;2023-07-16T07:55:05;26.70;;;8.18;;
34832;SDS011;55941;50.800;4.342;2023-07-16T07:57:31;21.77;;;8.45;;
34832;SDS011;55941;50.800;4.342;2023-07-16T07:59:57;20.15;;;7.25;;
34832;SDS011;55941;50.800;4.342;2023-07-16T08:02:26;22.60;;;7.82;;
34832;SDS011;55941;50.800;4.342;2023-07-16T08:04:51;16.00;;;6.85;;
34832;SDS011;55941;50.800;4.342;2023-07-16T08:07:19;19.55;;;7.70;;
34832;SDS011;55941;50.800;4.342;2023-07-16T08:09:45;17.63;;;7.10;;
34832;SDS011;55941;50.800;4.342;2023-07-16T08:12:12;25.00;;;7.50;;
34832;SDS011;55941;50.800;4.342;2023-07-16T08:14:38;18.77;;;6.97;;
34832;SDS011;55941;50.800;4.342;2023-07-16T08:17:03;19.75;;;6.90;;
34832;SDS011;55941;50.800;4.342;2023-07-16T08:19:30;20.50;;;7.68;;
34832;SDS011;55941;50.800;4.342;2023-07-16T08:21:55;19.55;;;7.47;;
34832;SDS011;55941;50.800;4.342;2023-07-16T08:24:21;19.40;;;6.60;;
34832;SDS011;55941;50.800;4.342;2023-07-16T08:26:47;19.92;;;5.85;;
34832;SDS011;55941;50.800;4.342;2023-07-16T08:29:13;18.92;;;6.55;;
34832;SDS011;55941;50.800;4.342;2023-07-16T08:31:38;21.30;;;5.97;;
34832;SDS011;55941;50.800;4.342;2023-07-16T08:34:05;22.02;;;5.97;;
34832;SDS011;55941;50.800;4.342;2023-07-16T08:36:32;24.58;;;5.70;;
34832;SDS011;55941;50.800;4.342;2023-07-16T08:38:58;15.70;;;5.32;;
34832;SDS011;55941;50.800;4.342;2023-07-16T08:41:24;21.30;;;5.78;;
34832;SDS011;55941;50.800;4.342;2023-07-16T08:43:50;15.73;;;5.30;;
34832;SDS011;55941;50.800;4.342;2023-07-16T08:46:16;15.32;;;5.30;;
34832;SDS011;55941;50.800;4.342;2023-07-16T08:48:42;14.70;;;5.47;;
34832;SDS011;55941;50.800;4.342;2023-07-16T08:51:09;15.60;;;5.47;;
34832;SDS011;55941;50.800;4.342;2023-07-16T08:53:36;16.17;;;5.05;;
34832;SDS011;55941;50.800;4.342;2023-07-16T08:56:02;18.15;;;5.82;;
34832;SDS011;55941;50.800;4.342;2023-07-16T08:58:30;15.35;;;5.30;;
34832;SDS011;55941;50.800;4.342;2023-07-16T09:00:56;14.88;;;5.00;;
34832;SDS011;55941;50.800;4.342;2023-07-16T09:03:23;17.00;;;5.22;;
34832;SDS011;55941;50.800;4.342;2023-07-16T09:05:49;22.05;;;6.65;;
34832;SDS011;55941;50.800;4.342;2023-07-16T09:08:15;11.10;;;5.45;;
34832;SDS011;55941;50.800;4.342;2023-07-16T09:10:41;16.77;;;5.45;;
34832;SDS011;55941;50.800;4.342;2023-07-16T09:13:09;17.85;;;5.60;;
34832;SDS011;55941;50.800;4.342;2023-07-16T09:15:35;11.60;;;5.15;;
34832;SDS011;55941;50.800;4.342;2023-07-16T09:18:02;13.90;;;5.45;;
34832;SDS011;55941;50.800;4.342;2023-07-16T09:20:30;12.82;;;4.93;;
34832;SDS011;55941;50.800;4.342;2023-07-16T09:22:56;8.35;;;4.25;;
34832;SDS011;55941;50.800;4.342;2023-07-16T09:25:31;13.93;;;5.28;;
34832;SDS011;55941;50.800;4.342;2023-07-16T09:28:03;16.08;;;5.18;;
34832;SDS011;55941;50.800;4.342;2023-07-16T09:30:33;14.10;;;4.78;;
34832;SDS011;55941;50.800;4.342;2023-07-16T09:38:08;14.23;;;5.47;;
34832;SDS011;55941;50.800;4.342;2023-07-16T09:40:39;12.73;;;5.47;;
34832;SDS011;55941;50.800;4.342;2023-07-16T09:43:08;12.23;;;5.43;;
34832;SDS011;55941;50.800;4.342;2023-07-16T09:45:35;13.68;;;4.90;;
34832;SDS011;55941;50.800;4.342;2023-07-16T09:48:02;13.02;;;5.30;;
34832;SDS011;55941;50.800;4.342;2023-07-16T09:50:28;19.25;;;5.30;;
34832;SDS011;55941;50.800;4.342;2023-07-16T09:52:56;14.70;;;5.40;;
34832;SDS011;55941;50.800;4.342;2023-07-16T09:55:23;10.52;;;4.63;;
34832;SDS011;55941;50.800;4.342;2023-07-16T09:57:50;18.45;;;5.45;;
34832;SDS011;55941;50.800;4.342;2023-07-16T10:00:21;12.38;;;4.75;;
34832;SDS011;55941;50.800;4.342;2023-07-16T10:02:48;14.23;;;5.38;;
34832;SDS011;55941;50.800;4.342;2023-07-16T10:07:43;15.32;;;5.10;;
34832;SDS011;55941;50.800;4.342;2023-07-16T10:10:15;16.67;;;5.25;;
34832;SDS011;55941;50.800;4.342;2023-07-16T10:13:06;16.88;;;5.10;;
34832;SDS011;55941;50.800;4.342;2023-07-16T10:15:31;16.27;;;4.82;;
34832;SDS011;55941;50.800;4.342;2023-07-16T10:17:57;15.98;;;5.22;;
34832;SDS011;55941;50.800;4.342;2023-07-16T10:20:30;13.82;;;4.90;;
34832;SDS011;55941;50.800;4.342;2023-07-16T10:22:57;13.50;;;5.10;;
34832;SDS011;55941;50.800;4.342;2023-07-16T10:25:25;12.57;;;5.40;;
34832;SDS011;55941;50.800;4.342;2023-07-16T10:27:52;13.82;;;5.40;;
34832;SDS011;55941;50.800;4.342;2023-07-16T10:30:19;17.85;;;4.82;;
34832;SDS011;55941;50.800;4.342;2023-07-16T10:32:45;13.45;;;4.80;;
34832;SDS011;55941;50.800;4.342;2023-07-16T10:35:12;12.02;;;5.07;;
34832;SDS011;55941;50.800;4.342;2023-07-16T10:37:38;21.48;;;5.47;;
34832;SDS011;55941;50.800;4.342;2023-07-16T10:40:05;14.27;;;5.35;;
34832;SDS011;55941;50.800;4.342;2023-07-16T10:42:36;18.27;;;5.40;;
34832;SDS011;55941;50.800;4.342;2023-07-16T10:45:05;13.40;;;5.40;;
34832;SDS011;55941;50.800;4.342;2023-07-16T10:47:32;17.02;;;4.88;;
34832;SDS011;55941;50.800;4.342;2023-07-16T10:49:59;17.23;;;5.90;;
34832;SDS011;55941;50.800;4.342;2023-07-16T10:52:28;11.73;;;4.35;;
34832;SDS011;55941;50.800;4.342;2023-07-16T10:54:54;14.55;;;4.82;;
34832;SDS011;55941;50.800;4.342;2023-07-16T10:57:20;12.52;;;4.90;;
34832;SDS011;55941;50.800;4.342;2023-07-16T10:59:53;11.60;;;4.70;;
34832;SDS011;55941;50.800;4.342;2023-07-16T11:02:21;14.82;;;5.22;;
34832;SDS011;55941;50.800;4.342;2023-07-16T11:04:49;17.17;;;4.82;;
34832;SDS011;55941;50.800;4.342;2023-07-16T11:07:15;13.27;;;4.80;;
34832;SDS011;55941;50.800;4.342;2023-07-16T11:12:15;14.90;;;5.35;;
34832;SDS011;55941;50.800;4.342;2023-07-16T11:14:46;14.23;;;4.65;;
34832;SDS011;55941;50.800;4.342;2023-07-16T11:17:13;13.70;;;4.82;;
34832;SDS011;55941;50.800;4.342;2023-07-16T11:19:39;12.68;;;4.22;;
34832;SDS011;55941;50.800;4.342;2023-07-16T11:22:08;16.00;;;4.65;;
34832;SDS011;55941;50.800;4.342;2023-07-16T11:24:38;14.02;;;5.00;;
34832;SDS011;55941;50.800;4.342;2023-07-16T11:27:04;13.30;;;5.25;;
34832;SDS011;55941;50.800;4.342;2023-07-16T11:29:34;14.00;;;5.53;;
34832;SDS011;55941;50.800;4.342;2023-07-16T11:32:01;10.75;;;4.60;;
34832;SDS011;55941;50.800;4.342;2023-07-16T11:34:27;19.88;;;5.43;;
34832;SDS011;55941;50.800;4.342;2023-07-16T11:36:53;16.38;;;5.30;;
34832;SDS011;55941;50.800;4.342;2023-07-16T11:39:18;14.38;;;5.95;;
34832;SDS011;55941;50.800;4.342;2023-07-16T11:41:57;13.73;;;5.55;;
34832;SDS011;55941;50.800;4.342;2023-07-16T11:44:23;16.15;;;5.55;;
34832;SDS011;55941;50.800;4.342;2023-07-16T11:46:49;15.00;;;5.70;;
34832;SDS011;55941;50.800;4.342;2023-07-16T11:49:15;14.30;;;4.93;;
34832;SDS011;55941;50.800;4.342;2023-07-16T11:51:41;13.68;;;5.82;;
34832;SDS011;55941;50.800;4.342;2023-07-16T11:54:11;14.15;;;5.35;;
34832;SDS011;55941;50.800;4.342;2023-07-16T11:56:36;14.68;;;5.28;;
34832;SDS011;55941;50.800;4.342;2023-07-16T11:59:02;14.93;;;4.78;;
34832;SDS011;55941;50.800;4.342;2023-07-16T12:01:28;13.70;;;4.80;;
34832;SDS011;55941;50.800;4.342;2023-07-16T12:03:54;15.38;;;4.70;;
34832;SDS011;55941;50.800;4.342;2023-07-16T12:06:20;11.20;;;4.72;;
34832;SDS011;55941;50.800;4.342;2023-07-16T12:08:45;14.23;;;4.80;;
34832;SDS011;55941;50.800;4.342;2023-07-16T12:11:11;15.35;;;4.22;;
34832;SDS011;55941;50.800;4.342;2023-07-16T12:13:37;9.38;;;4.22;;
34832;SDS011;55941;50.800;4.342;2023-07-16T12:16:03;10.65;;;4.22;;
34832;SDS011;55941;50.800;4.342;2023-07-16T12:18:29;12.55;;;4.10;;
34832;SDS011;55941;50.800;4.342;2023-07-16T12:20:56;8.52;;;4.40;;
34832;SDS011;55941;50.800;4.342;2023-07-16T12:23:21;9.52;;;4.30;;
34832;SDS011;55941;50.800;4.342;2023-07-16T12:25:49;8.32;;;3.42;;
34832;SDS011;55941;50.800;4.342;2023-07-16T12:28:15;8.68;;;3.58;;
34832;SDS011;55941;50.800;4.342;2023-07-16T12:30:41;12.40;;;4.45;;
34832;SDS011;55941;50.800;4.342;2023-07-16T12:33:07;15.35;;;4.15;;
34832;SDS011;55941;50.800;4.342;2023-07-16T12:35:32;11.75;;;4.32;;
34832;SDS011;55941;50.800;4.342;2023-07-16T12:37:58;17.48;;;3.95;;
34832;SDS011;55941;50.800;4.342;2023-07-16T12:40:24;13.55;;;3.92;;
34832;SDS011;55941;50.800;4.342;2023-07-16T12:42:52;12.40;;;4.00;;
34832;SDS011;55941;50.800;4.342;2023-07-16T12:45:17;11.75;;;3.80;;
34832;SDS011;55941;50.800;4.342;2023-07-16T12:47:43;12.70;;;4.13;;
34832;SDS011;55941;50.800;4.342;2023-07-16T12:50:09;12.05;;;5.20;;
34832;SDS011;55941;50.800;4.342;2023-07-16T12:52:34;14.88;;;4.60;;
34832;SDS011;55941;50.800;4.342;2023-07-16T12:55:00;8.15;;;3.85;;
34832;SDS011;55941;50.800;4.342;2023-07-16T12:57:26;11.50;;;3.90;;
34832;SDS011;55941;50.800;4.342;2023-07-16T12:59:52;55.05;;;32.28;;
34832;SDS011;55941;50.800;4.342;2023-07-16T13:02:18;33.28;;;19.77;;
34832;SDS011;55941;50.800;4.342;2023-07-16T13:04:44;17.50;;;9.68;;
34832;SDS011;55941;50.800;4.342;2023-07-16T13:07:10;23.73;;;12.30;;
34832;SDS011;55941;50.800;4.342;2023-07-16T13:09:36;18.50;;;8.18;;
34832;SDS011;55941;50.800;4.342;2023-07-16T13:12:01;7.55;;;3.85;;
34832;SDS011;55941;50.800;4.342;2023-07-16T13:14:28;7.65;;;3.65;;
34832;SDS011;55941;50.800;4.342;2023-07-16T13:16:53;12.05;;;4.53;;
34832;SDS011;55941;50.800;4.342;2023-07-16T13:19:19;11.88;;;5.47;;
34832;SDS011;55941;50.800;4.342;2023-07-16T13:21:45;6.95;;;3.03;;
34832;SDS011;55941;50.800;4.342;2023-07-16T13:24:10;11.25;;;2.95;;
34832;SDS011;55941;50.800;4.342;2023-07-16T13:26:37;7.18;;;3.03;;
34832;SDS011;55941;50.800;4.342;2023-07-16T13:29:03;9.93;;;3.20;;
34832;SDS011;55941;50.800;4.342;2023-07-16T13:31:29;12.00;;;3.65;;
34832;SDS011;55941;50.800;4.342;2023-07-16T13:33:54;9.05;;;3.03;;
34832;SDS011;55941;50.800;4.342;2023-07-16T13:36:20;6.45;;;2.78;;
34832;SDS011;55941;50.800;4.342;2023-07-16T13:38:46;8.85;;;2.95;;
34832;SDS011;55941;50.800;4.342;2023-07-16T13:41:12;4.75;;;2.05;;
34832;SDS011;55941;50.800;4.342;2023-07-16T13:43:37;10.32;;;2.15;;
34832;SDS011;55941;50.800;4.342;2023-07-16T13:46:03;5.38;;;2.10;;
34832;SDS011;55941;50.800;4.342;2023-07-16T13:48:29;7.18;;;2.22;;
34832;SDS011;55941;50.800;4.342;2023-07-16T13:50:55;9.25;;;2.63;;
34832;SDS011;55941;50.800;4.342;2023-07-16T13:53:20;4.93;;;2.28;;
34832;SDS011;55941;50.800;4.342;2023-07-16T13:55:46;8.70;;;2.58;;
34832;SDS011;55941;50.800;4.342;2023-07-16T13:58:12;6.30;;;2.25;;
34832;SDS011;55941;50.800;4.342;2023-07-16T14:00:39;8.07;;;2.03;;
34832;SDS011;55941;50.800;4.342;2023-07-16T14:03:05;10.75;;;2.60;;
34832;SDS011;55941;50.800;4.342;2023-07-16T14:05:31;4.00;;;2.15;;
34832;SDS011;55941;50.800;4.342;2023-07-16T14:08:03;9.15;;;2.88;;
34832;SDS011;55941;50.800;4.342;2023-07-16T14:10:33;10.75;;;2.83;;
34832;SDS011;55941;50.800;4.342;2023-07-16T14:13:00;7.75;;;2.90;;
34832;SDS011;55941;50.800;4.342;2023-07-16T14:15:25;9.07;;;2.72;;
34832;SDS011;55941;50.800;4.342;2023-07-16T14:17:51;7.97;;;2.67;;
34832;SDS011;55941;50.800;4.342;2023-07-16T14:20:17;7.30;;;3.03;;
34832;SDS011;55941;50.800;4.342;2023-07-16T14:22:43;6.47;;;2.70;;
34832;SDS011;55941;50.800;4.342;2023-07-16T14:25:08;9.68;;;3.00;;
34832;SDS011;55941;50.800;4.342;2023-07-16T14:27:34;9.95;;;3.10;;
34832;SDS011;55941;50.800;4.342;2023-07-16T14:30:00;10.43;;;3.38;;
34832;SDS011;55941;50.800;4.342;2023-07-16T14:32:26;9.65;;;2.95;;
34832;SDS011;55941;50.800;4.342;2023-07-16T14:34:52;10.15;;;3.33;;
34832;SDS011;55941;50.800;4.342;2023-07-16T14:37:18;6.05;;;2.50;;
34832;SDS011;55941;50.800;4.342;2023-07-16T14:39:44;6.97;;;2.58;;
34832;SDS011;55941;50.800;4.342;2023-07-16T14:42:10;4.80;;;2.22;;
34832;SDS011;55941;50.800;4.342;2023-07-16T14:44:36;5.25;;;2.33;;
34832;SDS011;55941;50.800;4.342;2023-07-16T14:47:01;4.68;;;2.00;;